sensor_id;sensor_type;location;lat;lon;timestamp;temperature;humidity
7512;DHT22;9999;48.780;9.146;2023-11-18T00:01:46;5.10;99.90
7512;DHT22;9999;48.780;9.146;2023-11-18T00:04:14;5.10;99.90
7512;DHT22;9999;48.780;9.146;2023-11-18T00:06:42;5.10;99.90
7512;DHT22;9999;48.780;9.146;2023-11-18T00:09:09;5.00;99.90
7512;DHT22;9999;48.780;9.146;2023-11-18T00:11:38;5.10;99.90
7512;DHT22;9999;48.780;9.146;2023-11-18T00:14:05;5.10;99.90
7512;DHT22;9999;48.780;9.146;2023-11-18T00:16:32;5.10;99.90
7512;DHT22;9999;48.780;9.146;2023-11-18T00:18:59;5.20;99.90
7512;DHT22;9999;48.780;9.146;2023-11-18T00:21:28;5.20;99.90
7512;DHT22;9999;48.780;9.146;2023-11-18T00:23:55;5.20;99.90
7512;DHT22;9999;48.780;9.146;2023-11-18T00:26:22;5.20;99.90
7512;DHT22;9999;48.780;9.146;2023-11-18T00:28:56;5.10;99.90
7512;DHT22;9999;48.780;9.146;2023-11-18T00:31:23;5.10;99.90
7512;DHT22;9999;48.780;9.146;2023-11-18T00:33:50;5.10;99.90
7512;DHT22;9999;48.780;9.146;2023-11-18T00:36:18;5.10;99.90
7512;DHT22;9999;48.780;9.146;2023-11-18T00:38:46;5.20;99.90
7512;DHT22;9999;48.780;9.146;2023-11-18T00:41:14;5.20;99.90
7512;DHT22;9999;48.780;9.146;2023-11-18T00:43:42;5.10;99.90
7512;DHT22;9999;48.780;9.146;2023-11-18T00:46:09;5.10;99.90
7512;DHT22;9999;48.780;9.146;2023-11-18T00:48:36;5.10;99.90
7512;DHT22;9999;48.780;9.146;2023-11-18T00:51:04;5.10;99.90
7512;DHT22;9999;48.780;9.146;2023-11-18T00:53:33;5.10;99.90
7512;DHT22;9999;48.780;9.146;2023-11-18T00:56:01;5.10;99.90
7512;DHT22;9999;48.780;9.146;2023-11-18T00:58:33;5.10;99.90
7512;DHT22;9999;48.780;9.146;2023-11-18T01:01:02;5.10;99.90
7512;DHT22;9999;48.780;9.146;2023-11-18T01:03:33;5.10;99.90
7512;DHT22;9999;48.780;9.146;2023-11-18T01:06:00;5.10;99.90
7512;DHT22;9999;48.780;9.146;2023-11-18T01:08:27;5.10;99.90
7512;DHT22;9999;48.780;9.146;2023-11-18T01:10:54;5.00;99.90
7512;DHT22;9999;48.780;9.146;2023-11-18T01:13:22;5.00;99.90
7512;DHT22;9999;48.780;9.146;2023-11-18T01:15:49;5.00;99.90
7512;DHT22;9999;48.780;9.146;2023-11-18T01:18:16;5.10;99.90
7512;DHT22;9999;48.780;9.146;2023-11-18T01:20:43;5.10;99.90
7512;DHT22;9999;48.780;9.146;2023-11-18T01:23:10;5.10;99.90
7512;DHT22;9999;48.780;9.146;2023-11-18T01:25:37;5.00;99.90
7512;DHT22;9999;48.780;9.146;2023-11-18T01:28:05;4.90;99.90
7512;DHT22;9999;48.780;9.146;2023-11-18T01:30:33;5.00;99.90
7512;DHT22;9999;48.780;9.146;2023-11-18T01:33:00;5.00;99.90
7512;DHT22;9999;48.780;9.146;2023-11-18T01:35:27;5.10;99.90
7512;DHT22;9999;48.780;9.146;2023-11-18T01:37:55;5.10;99.90
7512;DHT22;9999;48.780;9.146;2023-11-18T01:40:22;5.10;99.90
7512;DHT22;9999;48.780;9.146;2023-11-18T01:42:49;5.10;99.90
7512;DHT22;9999;48.780;9.146;2023-11-18T01:45:16;5.20;99.90
7512;DHT22;9999;48.780;9.146;2023-11-18T01:47:45;5.20;99.90
7512;DHT22;9999;48.780;9.146;2023-11-18T01:50:15;5.20;99.90
7512;DHT22;9999;48.780;9.146;2023-11-18T01:52:43;5.20;99.90
7512;DHT22;9999;48.780;9.146;2023-11-18T01:55:10;5.20;99.90
7512;DHT22;9999;48.780;9.146;2023-11-18T01:57:38;5.20;99.90
7512;DHT22;9999;48.780;9.146;2023-11-18T02:00:10;5.20;99.90
7512;DHT22;9999;48.780;9.146;2023-11-18T02:02:44;5.10;99.90
7512;DHT22;9999;48.780;9.146;2023-11-18T02:05:11;5.10;99.90
7512;DHT22;9999;48.780;9.146;2023-11-18T02:07:38;5.20;99.90
7512;DHT22;9999;48.780;9.146;2023-11-18T02:10:07;5.10;99.90
7512;DHT22;9999;48.780;9.146;2023-11-18T02:12:50;5.10;99.90
7512;DHT22;9999;48.780;9.146;2023-11-18T02:15:20;5.10;99.90
7512;DHT22;9999;48.780;9.146;2023-11-18T02:17:50;5.20;99.90
7512;DHT22;9999;48.780;9.146;2023-11-18T02:20:19;5.20;99.90
7512;DHT22;9999;48.780;9.146;2023-11-18T02:22:47;5.00;99.90
7512;DHT22;9999;48.780;9.146;2023-11-18T02:25:16;5.00;99.90
7512;DHT22;9999;48.780;9.146;2023-11-18T02:27:45;5.00;99.90
7512;DHT22;9999;48.780;9.146;2023-11-18T02:30:16;5.00;99.90
7512;DHT22;9999;48.780;9.146;2023-11-18T02:32:47;5.10;99.90
7512;DHT22;9999;48.780;9.146;2023-11-18T02:35:20;5.20;99.90
7512;DHT22;9999;48.780;9.146;2023-11-18T02:37:53;5.20;99.90
7512;DHT22;9999;48.780;9.146;2023-11-18T02:40:26;5.20;99.90
7512;DHT22;9999;48.780;9.146;2023-11-18T02:42:58;5.30;99.90
7512;DHT22;9999;48.780;9.146;2023-11-18T02:45:26;5.30;99.90
7512;DHT22;9999;48.780;9.146;2023-11-18T02:47:53;5.30;99.90
7512;DHT22;9999;48.780;9.146;2023-11-18T02:50:23;5.20;99.90
7512;DHT22;9999;48.780;9.146;2023-11-18T02:52:50;5.30;99.90
7512;DHT22;9999;48.780;9.146;2023-11-18T02:55:17;5.10;99.90
7512;DHT22;9999;48.780;9.146;2023-11-18T02:57:43;5.00;99.90
7512;DHT22;9999;48.780;9.146;2023-11-18T03:00:13;5.00;99.90
7512;DHT22;9999;48.780;9.146;2023-11-18T03:02:45;5.00;99.90
7512;DHT22;9999;48.780;9.146;2023-11-18T03:05:12;5.10;99.90
7512;DHT22;9999;48.780;9.146;2023-11-18T03:07:41;5.10;99.90
7512;DHT22;9999;48.780;9.146;2023-11-18T03:10:10;5.10;99.90
7512;DHT22;9999;48.780;9.146;2023-11-18T03:12:46;5.20;99.90
7512;DHT22;9999;48.780;9.146;2023-11-18T03:15:14;5.10;99.90
7512;DHT22;9999;48.780;9.146;2023-11-18T03:17:43;5.10;99.90
7512;DHT22;9999;48.780;9.146;2023-11-18T03:20:11;5.00;99.90
7512;DHT22;9999;48.780;9.146;2023-11-18T03:22:40;5.00;99.90
7512;DHT22;9999;48.780;9.146;2023-11-18T03:25:09;4.90;99.90
7512;DHT22;9999;48.780;9.146;2023-11-18T03:27:36;4.90;99.90
7512;DHT22;9999;48.780;9.146;2023-11-18T03:30:04;4.80;99.90
7512;DHT22;9999;48.780;9.146;2023-11-18T03:32:33;4.80;99.90
7512;DHT22;9999;48.780;9.146;2023-11-18T03:35:00;4.80;99.90
7512;DHT22;9999;48.780;9.146;2023-11-18T03:37:27;4.90;99.90
7512;DHT22;9999;48.780;9.146;2023-11-18T03:39:54;4.90;99.90
7512;DHT22;9999;48.780;9.146;2023-11-18T03:42:21;4.90;99.90
7512;DHT22;9999;48.780;9.146;2023-11-18T03:44:48;4.80;99.90
7512;DHT22;9999;48.780;9.146;2023-11-18T03:47:15;4.70;99.90
7512;DHT22;9999;48.780;9.146;2023-11-18T03:49:43;4.70;99.90
7512;DHT22;9999;48.780;9.146;2023-11-18T03:52:10;4.70;99.90
7512;DHT22;9999;48.780;9.146;2023-11-18T03:54:37;4.80;99.90
7512;DHT22;9999;48.780;9.146;2023-11-18T03:57:04;4.80;99.90
7512;DHT22;9999;48.780;9.146;2023-11-18T03:59:31;4.90;99.90
7512;DHT22;9999;48.780;9.146;2023-11-18T04:01:58;4.80;99.90
7512;DHT22;9999;48.780;9.146;2023-11-18T04:04:24;4.80;99.90
7512;DHT22;9999;48.780;9.146;2023-11-18T04:06:53;4.80;99.90
7512;DHT22;9999;48.780;9.146;2023-11-18T04:09:20;4.80;99.90
7512;DHT22;9999;48.780;9.146;2023-11-18T04:11:47;4.80;99.90
7512;DHT22;9999;48.780;9.146;2023-11-18T04:14:14;4.80;99.90
7512;DHT22;9999;48.780;9.146;2023-11-18T04:16:41;4.80;99.90
7512;DHT22;9999;48.780;9.146;2023-11-18T04:19:08;4.70;99.90
7512;DHT22;9999;48.780;9.146;2023-11-18T04:21:35;4.70;99.90
7512;DHT22;9999;48.780;9.146;2023-11-18T04:24:04;4.60;99.90
7512;DHT22;9999;48.780;9.146;2023-11-18T04:26:31;4.60;99.90
7512;DHT22;9999;48.780;9.146;2023-11-18T04:28:58;4.70;99.90
7512;DHT22;9999;48.780;9.146;2023-11-18T04:31:26;4.70;99.90
7512;DHT22;9999;48.780;9.146;2023-11-18T04:33:52;4.70;99.90
7512;DHT22;9999;48.780;9.146;2023-11-18T04:36:21;4.70;99.90
7512;DHT22;9999;48.780;9.146;2023-11-18T04:38:48;4.70;99.90
7512;DHT22;9999;48.780;9.146;2023-11-18T04:41:16;4.60;99.90
7512;DHT22;9999;48.780;9.146;2023-11-18T04:43:43;4.60;99.90
7512;DHT22;9999;48.780;9.146;2023-11-18T04:46:10;4.60;99.90
7512;DHT22;9999;48.780;9.146;2023-11-18T04:48:38;4.60;99.90
7512;DHT22;9999;48.780;9.146;2023-11-18T04:51:05;4.70;99.90
7512;DHT22;9999;48.780;9.146;2023-11-18T04:53:32;4.70;99.90
7512;DHT22;9999;48.780;9.146;2023-11-18T04:55:59;4.70;99.90
7512;DHT22;9999;48.780;9.146;2023-11-18T04:58:27;4.80;99.90
7512;DHT22;9999;48.780;9.146;2023-11-18T05:00:54;4.80;99.90
7512;DHT22;9999;48.780;9.146;2023-11-18T05:03:22;4.70;99.90
7512;DHT22;9999;48.780;9.146;2023-11-18T05:05:49;4.70;99.90
7512;DHT22;9999;48.780;9.146;2023-11-18T05:08:20;4.70;99.90
7512;DHT22;9999;48.780;9.146;2023-11-18T05:10:48;4.60;99.90
7512;DHT22;9999;48.780;9.146;2023-11-18T05:13:15;4.60;99.90
7512;DHT22;9999;48.780;9.146;2023-11-18T05:15:43;4.60;99.90
7512;DHT22;9999;48.780;9.146;2023-11-18T05:18:11;4.60;99.90
7512;DHT22;9999;48.780;9.146;2023-11-18T05:20:40;4.60;99.90
7512;DHT22;9999;48.780;9.146;2023-11-18T05:23:07;4.60;99.90
7512;DHT22;9999;48.780;9.146;2023-11-18T05:25:35;4.60;99.90
7512;DHT22;9999;48.780;9.146;2023-11-18T05:28:02;4.60;99.90
7512;DHT22;9999;48.780;9.146;2023-11-18T05:30:30;4.60;99.90
7512;DHT22;9999;48.780;9.146;2023-11-18T05:32:59;4.60;99.90
7512;DHT22;9999;48.780;9.146;2023-11-18T05:35:29;4.50;99.90
7512;DHT22;9999;48.780;9.146;2023-11-18T05:38:00;4.60;99.90
7512;DHT22;9999;48.780;9.146;2023-11-18T05:40:28;4.40;99.90
7512;DHT22;9999;48.780;9.146;2023-11-18T05:42:55;4.40;99.90
7512;DHT22;9999;48.780;9.146;2023-11-18T05:45:24;4.40;99.90
7512;DHT22;9999;48.780;9.146;2023-11-18T05:47:59;4.40;99.90
7512;DHT22;9999;48.780;9.146;2023-11-18T05:50:25;4.40;99.90
7512;DHT22;9999;48.780;9.146;2023-11-18T05:52:53;4.40;99.90
7512;DHT22;9999;48.780;9.146;2023-11-18T05:55:20;4.40;99.90
7512;DHT22;9999;48.780;9.146;2023-11-18T05:57:47;4.40;99.90
7512;DHT22;9999;48.780;9.146;2023-11-18T06:00:14;4.30;99.90
7512;DHT22;9999;48.780;9.146;2023-11-18T06:02:44;4.30;99.90
7512;DHT22;9999;48.780;9.146;2023-11-18T06:05:12;4.30;99.90
7512;DHT22;9999;48.780;9.146;2023-11-18T06:07:39;4.30;99.90
7512;DHT22;9999;48.780;9.146;2023-11-18T06:10:09;4.40;99.90
7512;DHT22;9999;48.780;9.146;2023-11-18T06:12:37;4.30;99.90
7512;DHT22;9999;48.780;9.146;2023-11-18T06:15:06;4.30;99.90
7512;DHT22;9999;48.780;9.146;2023-11-18T06:17:40;4.40;99.90
7512;DHT22;9999;48.780;9.146;2023-11-18T06:20:08;4.30;99.90
7512;DHT22;9999;48.780;9.146;2023-11-18T06:22:37;4.30;99.90
7512;DHT22;9999;48.780;9.146;2023-11-18T06:25:05;4.20;99.90
7512;DHT22;9999;48.780;9.146;2023-11-18T06:27:33;4.20;99.90
7512;DHT22;9999;48.780;9.146;2023-11-18T06:29:59;4.10;99.90
7512;DHT22;9999;48.780;9.146;2023-11-18T06:32:26;4.10;99.90
7512;DHT22;9999;48.780;9.146;2023-11-18T06:34:53;4.10;99.90
7512;DHT22;9999;48.780;9.146;2023-11-18T06:37:20;4.10;99.90
7512;DHT22;9999;48.780;9.146;2023-11-18T06:39:48;4.10;99.90
7512;DHT22;9999;48.780;9.146;2023-11-18T06:42:16;4.00;99.90
7512;DHT22;9999;48.780;9.146;2023-11-18T06:44:43;3.90;99.90
7512;DHT22;9999;48.780;9.146;2023-11-18T06:47:10;3.90;99.90
7512;DHT22;9999;48.780;9.146;2023-11-18T06:49:38;4.00;99.90
7512;DHT22;9999;48.780;9.146;2023-11-18T06:52:06;4.00;99.90
7512;DHT22;9999;48.780;9.146;2023-11-18T06:54:37;4.00;99.90
7512;DHT22;9999;48.780;9.146;2023-11-18T06:57:05;3.90;99.90
7512;DHT22;9999;48.780;9.146;2023-11-18T06:59:32;3.90;99.90
7512;DHT22;9999;48.780;9.146;2023-11-18T07:02:00;4.00;99.90
7512;DHT22;9999;48.780;9.146;2023-11-18T07:04:27;4.00;99.90
7512;DHT22;9999;48.780;9.146;2023-11-18T07:06:53;4.00;99.90
7512;DHT22;9999;48.780;9.146;2023-11-18T07:09:20;4.00;99.90
7512;DHT22;9999;48.780;9.146;2023-11-18T07:11:48;4.10;99.90
7512;DHT22;9999;48.780;9.146;2023-11-18T07:14:18;4.20;99.90
7512;DHT22;9999;48.780;9.146;2023-11-18T07:16:45;4.30;99.90
7512;DHT22;9999;48.780;9.146;2023-11-18T07:19:12;4.40;99.90
7512;DHT22;9999;48.780;9.146;2023-11-18T07:21:45;4.50;99.90
7512;DHT22;9999;48.780;9.146;2023-11-18T07:24:12;4.70;99.90
7512;DHT22;9999;48.780;9.146;2023-11-18T07:26:39;4.70;99.90
7512;DHT22;9999;48.780;9.146;2023-11-18T07:29:05;4.70;99.90
7512;DHT22;9999;48.780;9.146;2023-11-18T07:31:34;4.90;99.90
7512;DHT22;9999;48.780;9.146;2023-11-18T07:34:02;4.90;99.90
7512;DHT22;9999;48.780;9.146;2023-11-18T07:36:30;4.90;99.90
7512;DHT22;9999;48.780;9.146;2023-11-18T07:38:56;5.10;99.90
7512;DHT22;9999;48.780;9.146;2023-11-18T07:41:26;5.10;99.90
7512;DHT22;9999;48.780;9.146;2023-11-18T07:43:53;5.10;99.90
7512;DHT22;9999;48.780;9.146;2023-11-18T07:46:21;5.10;99.90
7512;DHT22;9999;48.780;9.146;2023-11-18T07:48:50;5.10;99.90
7512;DHT22;9999;48.780;9.146;2023-11-18T07:51:17;5.10;99.90
7512;DHT22;9999;48.780;9.146;2023-11-18T07:53:44;5.00;99.90
7512;DHT22;9999;48.780;9.146;2023-11-18T07:56:11;5.10;99.90
7512;DHT22;9999;48.780;9.146;2023-11-18T07:58:38;5.00;99.90
7512;DHT22;9999;48.780;9.146;2023-11-18T08:01:05;5.10;99.90
7512;DHT22;9999;48.780;9.146;2023-11-18T08:03:33;5.10;99.90
7512;DHT22;9999;48.780;9.146;2023-11-18T08:06:01;5.10;99.90
7512;DHT22;9999;48.780;9.146;2023-11-18T08:08:28;5.20;99.90
7512;DHT22;9999;48.780;9.146;2023-11-18T08:10:55;5.30;99.90
7512;DHT22;9999;48.780;9.146;2023-11-18T08:13:22;5.30;99.90
7512;DHT22;9999;48.780;9.146;2023-11-18T08:15:49;5.30;99.90
7512;DHT22;9999;48.780;9.146;2023-11-18T08:18:16;5.30;99.90
7512;DHT22;9999;48.780;9.146;2023-11-18T08:20:43;5.40;99.90
7512;DHT22;9999;48.780;9.146;2023-11-18T08:23:11;5.50;99.90
7512;DHT22;9999;48.780;9.146;2023-11-18T08:25:39;5.40;99.90
7512;DHT22;9999;48.780;9.146;2023-11-18T08:28:07;5.30;99.90
7512;DHT22;9999;48.780;9.146;2023-11-18T08:30:34;5.50;99.90
7512;DHT22;9999;48.780;9.146;2023-11-18T08:33:01;5.50;99.90
7512;DHT22;9999;48.780;9.146;2023-11-18T08:35:29;5.40;99.90
7512;DHT22;9999;48.780;9.146;2023-11-18T08:37:57;5.50;99.90
7512;DHT22;9999;48.780;9.146;2023-11-18T08:40:26;5.50;99.90
7512;DHT22;9999;48.780;9.146;2023-11-18T08:42:53;5.40;99.90
7512;DHT22;9999;48.780;9.146;2023-11-18T08:45:22;5.50;99.90
7512;DHT22;9999;48.780;9.146;2023-11-18T08:47:53;5.40;99.90
7512;DHT22;9999;48.780;9.146;2023-11-18T08:50:21;5.40;99.90
7512;DHT22;9999;48.780;9.146;2023-11-18T08:52:50;5.40;99.90
7512;DHT22;9999;48.780;9.146;2023-11-18T08:55:19;5.50;99.90
7512;DHT22;9999;48.780;9.146;2023-11-18T08:57:49;5.50;99.90
7512;DHT22;9999;48.780;9.146;2023-11-18T09:00:24;5.60;99.90
7512;DHT22;9999;48.780;9.146;2023-11-18T09:03:14;5.60;99.90
7512;DHT22;9999;48.780;9.146;2023-11-18T09:05:50;5.60;99.90
7512;DHT22;9999;48.780;9.146;2023-11-18T09:08:27;5.70;99.90
7512;DHT22;9999;48.780;9.146;2023-11-18T09:10:55;5.80;99.90
7512;DHT22;9999;48.780;9.146;2023-11-18T09:13:25;5.90;99.90
7512;DHT22;9999;48.780;9.146;2023-11-18T09:15:56;6.00;99.90
7512;DHT22;9999;48.780;9.146;2023-11-18T09:18:23;6.10;99.90
7512;DHT22;9999;48.780;9.146;2023-11-18T09:20:51;6.00;99.90
7512;DHT22;9999;48.780;9.146;2023-11-18T09:23:20;6.10;99.90
7512;DHT22;9999;48.780;9.146;2023-11-18T09:25:49;6.00;99.90
7512;DHT22;9999;48.780;9.146;2023-11-18T09:28:17;6.00;99.90
7512;DHT22;9999;48.780;9.146;2023-11-18T09:30:46;6.00;99.90
7512;DHT22;9999;48.780;9.146;2023-11-18T09:33:20;6.20;99.90
7512;DHT22;9999;48.780;9.146;2023-11-18T09:35:55;6.20;99.90
7512;DHT22;9999;48.780;9.146;2023-11-18T09:38:25;6.30;99.90
7512;DHT22;9999;48.780;9.146;2023-11-18T09:40:53;6.30;99.90
7512;DHT22;9999;48.780;9.146;2023-11-18T09:43:20;6.30;99.90
7512;DHT22;9999;48.780;9.146;2023-11-18T09:45:55;6.30;99.90
7512;DHT22;9999;48.780;9.146;2023-11-18T09:48:22;6.30;99.90
7512;DHT22;9999;48.780;9.146;2023-11-18T09:50:52;6.40;99.90
7512;DHT22;9999;48.780;9.146;2023-11-18T09:53:20;6.50;99.90
7512;DHT22;9999;48.780;9.146;2023-11-18T09:55:55;6.50;99.90
7512;DHT22;9999;48.780;9.146;2023-11-18T09:58:25;6.60;99.90
7512;DHT22;9999;48.780;9.146;2023-11-18T10:01:02;6.70;99.90
7512;DHT22;9999;48.780;9.146;2023-11-18T10:03:29;6.80;99.90
7512;DHT22;9999;48.780;9.146;2023-11-18T10:05:57;6.90;99.90
7512;DHT22;9999;48.780;9.146;2023-11-18T10:08:30;6.90;99.90
7512;DHT22;9999;48.780;9.146;2023-11-18T10:10:57;6.90;99.90
7512;DHT22;9999;48.780;9.146;2023-11-18T10:13:31;6.90;99.90
7512;DHT22;9999;48.780;9.146;2023-11-18T10:16:01;7.00;99.90
7512;DHT22;9999;48.780;9.146;2023-11-18T10:18:30;7.10;99.90
7512;DHT22;9999;48.780;9.146;2023-11-18T10:21:00;7.10;99.90
7512;DHT22;9999;48.780;9.146;2023-11-18T10:23:30;7.00;99.90
7512;DHT22;9999;48.780;9.146;2023-11-18T10:26:00;7.20;99.90
7512;DHT22;9999;48.780;9.146;2023-11-18T10:28:29;7.20;99.90
7512;DHT22;9999;48.780;9.146;2023-11-18T10:31:00;7.20;99.90
7512;DHT22;9999;48.780;9.146;2023-11-18T10:33:30;7.30;99.90
7512;DHT22;9999;48.780;9.146;2023-11-18T10:35:58;7.20;99.90
7512;DHT22;9999;48.780;9.146;2023-11-18T10:38:30;7.20;99.90
7512;DHT22;9999;48.780;9.146;2023-11-18T10:40:59;7.20;99.90
7512;DHT22;9999;48.780;9.146;2023-11-18T10:43:27;7.20;99.90
7512;DHT22;9999;48.780;9.146;2023-11-18T10:46:06;7.30;99.90
7512;DHT22;9999;48.780;9.146;2023-11-18T10:48:38;7.30;99.90
7512;DHT22;9999;48.780;9.146;2023-11-18T10:51:07;7.10;99.90
7512;DHT22;9999;48.780;9.146;2023-11-18T10:53:34;7.20;99.90
7512;DHT22;9999;48.780;9.146;2023-11-18T10:56:03;7.20;99.90
7512;DHT22;9999;48.780;9.146;2023-11-18T10:58:35;7.30;99.90
7512;DHT22;9999;48.780;9.146;2023-11-18T11:01:07;7.40;99.90
7512;DHT22;9999;48.780;9.146;2023-11-18T11:03:52;7.30;99.90
7512;DHT22;9999;48.780;9.146;2023-11-18T11:06:22;7.20;99.90
7512;DHT22;9999;48.780;9.146;2023-11-18T11:08:50;7.20;99.90
7512;DHT22;9999;48.780;9.146;2023-11-18T11:11:19;7.30;99.90
7512;DHT22;9999;48.780;9.146;2023-11-18T11:13:49;7.40;99.90
7512;DHT22;9999;48.780;9.146;2023-11-18T11:16:19;7.40;99.90
7512;DHT22;9999;48.780;9.146;2023-11-18T11:18:48;7.50;99.90
7512;DHT22;9999;48.780;9.146;2023-11-18T11:21:21;7.50;99.90
7512;DHT22;9999;48.780;9.146;2023-11-18T11:23:53;7.40;99.90
7512;DHT22;9999;48.780;9.146;2023-11-18T11:26:29;7.40;99.90
7512;DHT22;9999;48.780;9.146;2023-11-18T11:29:24;7.50;99.90
7512;DHT22;9999;48.780;9.146;2023-11-18T11:32:02;7.50;99.90
7512;DHT22;9999;48.780;9.146;2023-11-18T11:34:39;7.60;99.90
7512;DHT22;9999;48.780;9.146;2023-11-18T11:37:08;7.50;99.90
7512;DHT22;9999;48.780;9.146;2023-11-18T11:39:37;7.50;99.90
7512;DHT22;9999;48.780;9.146;2023-11-18T11:42:12;7.50;99.90
7512;DHT22;9999;48.780;9.146;2023-11-18T11:44:40;7.50;99.90
7512;DHT22;9999;48.780;9.146;2023-11-18T11:47:09;7.50;99.90
7512;DHT22;9999;48.780;9.146;2023-11-18T11:49:46;7.60;99.90
7512;DHT22;9999;48.780;9.146;2023-11-18T11:52:18;7.60;99.90
7512;DHT22;9999;48.780;9.146;2023-11-18T11:54:54;7.60;99.90
7512;DHT22;9999;48.780;9.146;2023-11-18T11:57:24;7.50;99.90
7512;DHT22;9999;48.780;9.146;2023-11-18T11:59:56;7.50;99.90
7512;DHT22;9999;48.780;9.146;2023-11-18T12:02:27;7.40;99.90
7512;DHT22;9999;48.780;9.146;2023-11-18T12:04:56;7.40;99.90
7512;DHT22;9999;48.780;9.146;2023-11-18T12:07:25;7.30;99.90
7512;DHT22;9999;48.780;9.146;2023-11-18T12:09:55;7.30;99.90
7512;DHT22;9999;48.780;9.146;2023-11-18T12:12:24;7.30;99.90
7512;DHT22;9999;48.780;9.146;2023-11-18T12:14:52;7.20;99.90
7512;DHT22;9999;48.780;9.146;2023-11-18T12:17:22;7.20;99.90
7512;DHT22;9999;48.780;9.146;2023-11-18T12:19:51;7.20;99.90
7512;DHT22;9999;48.780;9.146;2023-11-18T12:22:24;7.10;99.90
7512;DHT22;9999;48.780;9.146;2023-11-18T12:28:07;7.10;99.90
7512;DHT22;9999;48.780;9.146;2023-11-18T12:30:41;7.10;99.90
7512;DHT22;9999;48.780;9.146;2023-11-18T12:33:18;7.10;99.90
7512;DHT22;9999;48.780;9.146;2023-11-18T12:42:29;7.00;99.90
7512;DHT22;9999;48.780;9.146;2023-11-18T12:45:29;7.10;99.90
7512;DHT22;9999;48.780;9.146;2023-11-18T12:48:05;7.10;99.90
7512;DHT22;9999;48.780;9.146;2023-11-18T12:50:38;7.00;99.90
7512;DHT22;9999;48.780;9.146;2023-11-18T12:53:06;7.00;99.90
7512;DHT22;9999;48.780;9.146;2023-11-18T12:55:34;7.00;99.90
7512;DHT22;9999;48.780;9.146;2023-11-18T12:58:01;7.00;99.90
7512;DHT22;9999;48.780;9.146;2023-11-18T13:00:31;7.00;99.90
7512;DHT22;9999;48.780;9.146;2023-11-18T13:02:59;6.90;99.90
7512;DHT22;9999;48.780;9.146;2023-11-18T13:05:26;6.90;99.90
7512;DHT22;9999;48.780;9.146;2023-11-18T13:07:55;6.90;99.90
7512;DHT22;9999;48.780;9.146;2023-11-18T13:10:24;7.00;99.90
7512;DHT22;9999;48.780;9.146;2023-11-18T13:12:52;7.00;99.90
7512;DHT22;9999;48.780;9.146;2023-11-18T13:15:19;7.00;99.90
7512;DHT22;9999;48.780;9.146;2023-11-18T13:17:59;6.90;99.90
7512;DHT22;9999;48.780;9.146;2023-11-18T13:20:26;6.90;99.90
7512;DHT22;9999;48.780;9.146;2023-11-18T13:22:54;6.90;99.90
7512;DHT22;9999;48.780;9.146;2023-11-18T13:25:23;6.90;99.90
7512;DHT22;9999;48.780;9.146;2023-11-18T13:27:51;6.90;99.90
7512;DHT22;9999;48.780;9.146;2023-11-18T13:30:20;6.90;99.90
7512;DHT22;9999;48.780;9.146;2023-11-18T13:32:47;6.90;99.90
7512;DHT22;9999;48.780;9.146;2023-11-18T13:35:18;6.90;99.90
7512;DHT22;9999;48.780;9.146;2023-11-18T13:37:49;6.90;99.90
7512;DHT22;9999;48.780;9.146;2023-11-18T13:40:19;6.90;99.90
7512;DHT22;9999;48.780;9.146;2023-11-18T13:42:47;6.80;99.90
7512;DHT22;9999;48.780;9.146;2023-11-18T13:45:14;6.80;99.90
7512;DHT22;9999;48.780;9.146;2023-11-18T13:47:51;6.80;99.90
7512;DHT22;9999;48.780;9.146;2023-11-18T13:50:18;6.80;99.90
7512;DHT22;9999;48.780;9.146;2023-11-18T13:52:46;6.80;99.90
7512;DHT22;9999;48.780;9.146;2023-11-18T13:55:15;6.70;99.90
7512;DHT22;9999;48.780;9.146;2023-11-18T13:57:53;6.70;99.90
7512;DHT22;9999;48.780;9.146;2023-11-18T14:00:24;6.80;99.90
7512;DHT22;9999;48.780;9.146;2023-11-18T14:02:54;6.80;99.90
7512;DHT22;9999;48.780;9.146;2023-11-18T14:05:22;6.80;99.90
7512;DHT22;9999;48.780;9.146;2023-11-18T14:07:51;6.80;99.90
7512;DHT22;9999;48.780;9.146;2023-11-18T14:10:18;6.80;99.90
7512;DHT22;9999;48.780;9.146;2023-11-18T14:13:02;6.90;99.90
7512;DHT22;9999;48.780;9.146;2023-11-18T14:15:31;6.90;99.90
7512;DHT22;9999;48.780;9.146;2023-11-18T14:18:01;6.90;99.90
7512;DHT22;9999;48.780;9.146;2023-11-18T14:20:27;6.90;99.90
7512;DHT22;9999;48.780;9.146;2023-11-18T14:22:56;6.90;99.90
7512;DHT22;9999;48.780;9.146;2023-11-18T14:25:23;6.80;99.90
7512;DHT22;9999;48.780;9.146;2023-11-18T14:27:50;6.80;99.90
7512;DHT22;9999;48.780;9.146;2023-11-18T14:30:20;6.80;99.90
7512;DHT22;9999;48.780;9.146;2023-11-18T14:32:50;6.90;99.90
7512;DHT22;9999;48.780;9.146;2023-11-18T14:35:16;6.90;99.90
7512;DHT22;9999;48.780;9.146;2023-11-18T14:37:43;6.80;99.90
7512;DHT22;9999;48.780;9.146;2023-11-18T14:40:11;6.80;99.90
7512;DHT22;9999;48.780;9.146;2023-11-18T14:42:41;6.80;99.90
7512;DHT22;9999;48.780;9.146;2023-11-18T14:45:10;6.80;99.90
7512;DHT22;9999;48.780;9.146;2023-11-18T14:47:39;6.90;99.90
7512;DHT22;9999;48.780;9.146;2023-11-18T14:50:07;6.80;99.90
7512;DHT22;9999;48.780;9.146;2023-11-18T14:52:43;6.80;99.90
7512;DHT22;9999;48.780;9.146;2023-11-18T14:55:11;6.90;99.90
7512;DHT22;9999;48.780;9.146;2023-11-18T14:57:39;6.90;99.90
7512;DHT22;9999;48.780;9.146;2023-11-18T15:00:06;6.90;99.90
7512;DHT22;9999;48.780;9.146;2023-11-18T15:02:45;6.80;99.90
7512;DHT22;9999;48.780;9.146;2023-11-18T15:05:14;6.80;99.90
7512;DHT22;9999;48.780;9.146;2023-11-18T15:07:44;6.90;99.90
7512;DHT22;9999;48.780;9.146;2023-11-18T15:10:14;6.90;99.90
7512;DHT22;9999;48.780;9.146;2023-11-18T15:12:45;6.80;99.90
7512;DHT22;9999;48.780;9.146;2023-11-18T15:15:12;6.80;99.90
7512;DHT22;9999;48.780;9.146;2023-11-18T15:17:46;6.70;99.90
7512;DHT22;9999;48.780;9.146;2023-11-18T15:20:14;6.80;99.90
7512;DHT22;9999;48.780;9.146;2023-11-18T15:22:41;6.80;99.90
7512;DHT22;9999;48.780;9.146;2023-11-18T15:25:12;6.90;99.90
7512;DHT22;9999;48.780;9.146;2023-11-18T15:27:40;6.90;99.90
7512;DHT22;9999;48.780;9.146;2023-11-18T15:30:09;6.80;99.90
7512;DHT22;9999;48.780;9.146;2023-11-18T15:32:37;6.80;99.90
7512;DHT22;9999;48.780;9.146;2023-11-18T15:35:07;6.80;99.90
7512;DHT22;9999;48.780;9.146;2023-11-18T15:37:36;6.90;99.90
7512;DHT22;9999;48.780;9.146;2023-11-18T15:40:05;6.90;99.90
7512;DHT22;9999;48.780;9.146;2023-11-18T15:42:46;6.80;99.90
7512;DHT22;9999;48.780;9.146;2023-11-18T15:45:15;6.80;99.90
7512;DHT22;9999;48.780;9.146;2023-11-18T15:47:42;6.90;99.90
7512;DHT22;9999;48.780;9.146;2023-11-18T15:50:12;6.80;99.90
7512;DHT22;9999;48.780;9.146;2023-11-18T15:52:41;6.80;99.90
7512;DHT22;9999;48.780;9.146;2023-11-18T15:55:08;6.80;99.90
7512;DHT22;9999;48.780;9.146;2023-11-18T15:57:39;6.80;99.90
7512;DHT22;9999;48.780;9.146;2023-11-18T16:00:07;6.90;99.90
7512;DHT22;9999;48.780;9.146;2023-11-18T16:02:40;6.90;99.90
7512;DHT22;9999;48.780;9.146;2023-11-18T16:05:07;6.90;99.90
7512;DHT22;9999;48.780;9.146;2023-11-18T16:07:36;6.80;99.90
7512;DHT22;9999;48.780;9.146;2023-11-18T16:10:04;6.80;99.90
7512;DHT22;9999;48.780;9.146;2023-11-18T16:12:30;6.80;99.90
7512;DHT22;9999;48.780;9.146;2023-11-18T16:14:57;6.80;99.90
7512;DHT22;9999;48.780;9.146;2023-11-18T16:17:24;6.80;99.90
7512;DHT22;9999;48.780;9.146;2023-11-18T16:19:51;6.80;99.90
7512;DHT22;9999;48.780;9.146;2023-11-18T16:22:18;6.80;99.90
7512;DHT22;9999;48.780;9.146;2023-11-18T16:24:46;6.80;99.90
7512;DHT22;9999;48.780;9.146;2023-11-18T16:27:13;6.80;99.90
7512;DHT22;9999;48.780;9.146;2023-11-18T16:29:41;6.80;99.90
7512;DHT22;9999;48.780;9.146;2023-11-18T16:32:08;6.80;99.90
7512;DHT22;9999;48.780;9.146;2023-11-18T16:34:35;6.80;99.90
7512;DHT22;9999;48.780;9.146;2023-11-18T16:37:04;6.80;99.90
7512;DHT22;9999;48.780;9.146;2023-11-18T16:39:31;6.80;99.90